Airport View

Enter AWOS ICAO identifier for current METAR.

ex. KFNL

K6S5 030015Z AUTO 05006KT 10SM CLR 24/04 A3005 RMK AO2

3 Jun 2020 00:29

Frequency: 119.825

Phone: 406-375-9149

Other Area AWOS: KMSO - KP69 - KSMN - KGIC

TAF KMSO 022320Z 0300/0324 28010G17KT P6SM SCT250 FM030200 30005KT P6SM OVC250 FM031600 29010KT P6SM SCT250 FM032000 30015G25KT P6SM SKC